Grass Valley, California
Current Conditions -  °F | °C
As of 9:20 AM on Saturday 20 Dec 2014 (Local Time) from KGOO Reporting Station
Overcast Overcast  
Wind Chill:   Ceiling: 100
Heat Index:   Visibility: 0mi
Dew Point:   Wind: 3mph
Humidity: 100%   Direction: 190°S
Pressure: 30.21"   Gusts: NA
Location:  39.22°N, 121.06°W
Report Text: KGOO 201720Z AUTO 19003KT M1/4SM OVC001 07/07 A3021 RMK AO1
Loading
Personal Weather Stations






























Interactive Weather Map New forecast layout! Learn more

10-Day Weather Forecast

Advertisements
Track Severe Weather on mobile